Time;durP1;ratioP1;P1;durP2;ratioP2;P2;SDS_P1;SDS_P2;PMS_P1;PMS_P2;Temp;Humidity;BMP_temperature;BMP_pressure;BME280_temperature;BME280_humidity;BME280_pressure;Samples;Min_cycle;Max_cycle;Signal;HPM_P1;HPM_P2
2022/12/21 05:22:35;;;;;;;3.05;1.13;;;;;;;10.01;100.00;99953.66;5109672;27;20744;-67
2022/12/21 05:25:00;;;;;;;2.97;1.60;;;;;;;10.01;100.00;99958.97;5109708;28;20065;-67
2022/12/21 05:27:25;;;;;;;2.40;1.58;;;;;;;10.06;100.00;99959.28;5109400;28;20477;-67
2022/12/21 05:29:51;;;;;;;2.42;1.60;;;;;;;10.07;100.00;99955.63;5110006;28;20058;-68
2022/12/21 05:32:16;;;;;;;2.90;1.73;;;;;;;10.08;100.00;99951.13;5108964;28;20057;-67
2022/12/21 05:34:42;;;;;;;2.97;1.92;;;;;;;10.09;100.00;99947.44;5109276;28;20380;-67
2022/12/21 05:37:07;;;;;;;4.13;1.30;;;;;;;10.16;100.00;99948.38;5109228;28;20040;-67
2022/12/21 05:39:33;;;;;;;4.65;1.35;;;;;;;10.17;100.00;99944.75;5109092;28;20036;-68
2022/12/21 05:41:59;;;;;;;1.52;1.13;;;;;;;10.17;100.00;99949.22;5108851;28;20115;-66
2022/12/21 05:44:24;;;;;;;2.38;1.25;;;;;;;10.18;100.00;99949.06;5109015;28;20024;-67
2022/12/21 05:46:50;;;;;;;2.15;1.23;;;;;;;10.16;100.00;99943.06;5108850;28;20078;-67
2022/12/21 05:49:16;;;;;;;1.45;0.93;;;;;;;10.15;100.00;99945.91;5108988;28;20089;-69
2022/12/21 05:51:41;;;;;;;2.15;1.20;;;;;;;10.15;100.00;99936.09;5108495;28;20036;-69
2022/12/21 05:54:07;;;;;;;1.63;1.33;;;;;;;10.16;100.00;99943.06;5109012;28;20042;-68
2022/12/21 05:56:34;;;;;;;1.30;0.90;;;;;;;10.18;100.00;99937.59;5107459;28;20716;-69
2022/12/21 05:59:00;;;;;;;2.50;1.08;;;;;;;10.17;100.00;99934.09;5108755;28;20044;-68
2022/12/21 06:01:25;;;;;;;2.05;1.35;;;;;;;10.19;100.00;99933.91;5108405;28;20044;-67
2022/12/21 06:03:51;;;;;;;1.13;0.90;;;;;;;10.15;100.00;99922.78;5108873;28;20035;-69
2022/12/21 06:06:17;;;;;;;1.30;1.20;;;;;;;10.15;100.00;99930.78;5109643;28;20047;-68
2022/12/21 06:08:43;;;;;;;4.75;1.60;;;;;;;10.13;100.00;99930.13;5109392;28;20084;-69
2022/12/21 06:11:17;;;;;;;1.73;1.17;;;;;;;10.12;100.00;99933.81;5108699;28;20028;-69
2022/12/21 06:13:42;;;;;;;2.25;1.33;;;;;;;10.19;100.00;99937.41;5109067;28;20108;-69
2022/12/21 06:16:20;;;;;;;1.00;0.80;;;;;;;10.14;100.00;99920.31;5109256;28;20123;-69
2022/12/21 06:18:47;;;;;;;2.45;1.50;;;;;;;10.18;100.00;99937.59;5107127;28;20044;-69
2022/12/21 06:21:15;;;;;;;1.90;1.30;;;;;;;10.17;100.00;99942.09;5107517;28;20035;-68
2022/12/21 06:23:41;;;;;;;3.97;1.50;;;;;;;10.13;100.00;99926.66;5108375;28;20047;-68
2022/12/21 06:26:08;;;;;;;3.17;1.63;;;;;;;10.11;100.00;99939.31;5106817;28;20047;-69
2022/12/21 06:28:34;;;;;;;1.77;1.25;;;;;;;10.08;100.00;99937.81;5108344;28;20040;-68
2022/12/21 06:31:10;;;;;;;2.10;1.33;;;;;;;10.04;100.00;99932.03;5108036;28;20134;-68
2022/12/21 06:33:36;;;;;;;1.90;1.33;;;;;;;10.04;100.00;99937.34;5097480;28;20068;-69
2022/12/21 06:36:04;;;;;;;2.08;1.38;;;;;;;10.02;100.00;99938.53;5095314;28;20042;-69
2022/12/21 06:38:30;;;;;;;1.50;1.25;;;;;;;9.94;100.00;99946.56;5094937;28;20047;-69
2022/12/21 06:40:58;;;;;;;2.90;1.15;;;;;;;9.92;100.00;99943.25;5095035;28;20032;-68
2022/12/21 06:43:25;;;;;;;1.65;1.30;;;;;;;9.84;100.00;99941.44;5094903;28;20064;-69
2022/12/21 06:45:59;;;;;;;2.05;1.48;;;;;;;9.79;100.00;99943.84;5094409;28;20048;-68
2022/12/21 06:48:25;;;;;;;2.90;1.35;;;;;;;9.75;100.00;99943.34;5094546;28;20032;-68
2022/12/21 06:50:56;;;;;;;2.43;1.70;;;;;;;9.73;100.00;99947.19;5094000;28;20527;-68
2022/12/21 06:53:23;;;;;;;2.03;1.40;;;;;;;9.64;100.00;99958.88;5094397;28;20093;-68
2022/12/21 06:55:49;;;;;;;3.67;2.08;;;;;;;9.67;100.00;99955.88;5094028;28;20442;-69
2022/12/21 06:58:15;;;;;;;2.97;1.90;;;;;;;9.70;100.00;99956.34;5094466;28;20047;-68
2022/12/21 07:00:41;;;;;;;2.05;1.48;;;;;;;9.79;100.00;99957.97;5093870;28;20090;-68
2022/12/21 07:03:07;;;;;;;1.75;0.98;;;;;;;9.88;100.00;99953.41;5094256;28;20044;-68
2022/12/21 07:05:33;;;;;;;1.27;1.00;;;;;;;10.00;100.00;99957.31;5094122;28;20040;-68
2022/12/21 07:07:59;;;;;;;3.38;1.00;;;;;;;10.17;100.00;99957.19;5094329;28;20397;-68
2022/12/21 07:10:24;;;;;;;5.60;1.20;;;;;;;10.30;100.00;99968.13;5094658;28;20046;-69
2022/12/21 07:12:50;;;;;;;3.03;1.30;;;;;;;10.40;100.00;99963.38;5094189;28;20043;-68
2022/12/21 07:15:15;;;;;;;1.15;0.90;;;;;;;10.41;100.00;99958.88;5094092;28;20381;-68
2022/12/21 07:17:41;;;;;;;2.03;1.27;;;;;;;10.43;100.00;99964.84;5094044;28;20381;-68
2022/12/21 07:20:06;;;;;;;1.65;1.10;;;;;;;10.47;100.00;99964.31;5093779;28;20048;-68
2022/12/21 07:22:32;;;;;;;1.58;1.10;;;;;;;10.47;100.00;99969.66;5093664;28;20119;-68
2022/12/21 07:24:57;;;;;;;3.33;1.65;;;;;;;10.47;100.00;99968.81;5093603;28;20093;-68
2022/12/21 07:27:23;;;;;;;3.70;1.20;;;;;;;10.49;100.00;99964.97;5092381;28;20074;-68
2022/12/21 07:29:48;;;;;;;4.22;1.00;;;;;;;10.47;100.00;99982.13;5093426;28;20468;-68
2022/12/21 07:32:13;;;;;;;1.55;1.40;;;;;;;10.43;100.00;99973.69;5093358;28;20044;-69
2022/12/21 07:34:39;;;;;;;1.30;0.98;;;;;;;10.44;100.00;99988.66;5093912;28;20048;-68
2022/12/21 07:37:04;;;;;;;4.03;1.38;;;;;;;10.43;100.00;99986.16;5093585;28;20070;-69
2022/12/21 07:39:30;;;;;;;1.50;1.20;;;;;;;10.41;100.00;99988.19;5093793;28;20048;-69
2022/12/21 07:41:55;;;;;;;1.52;1.30;;;;;;;10.42;100.00;99988.00;5093368;28;20193;-69
2022/12/21 07:44:20;;;;;;;3.05;1.50;;;;;;;10.45;100.00;99994.81;5092447;28;20039;-69
2022/12/21 07:46:48;;;;;;;1.48;1.25;;;;;;;10.44;100.00;99988.66;5093224;28;20036;-68
2022/12/21 07:49:17;;;;;;;1.58;1.20;;;;;;;10.45;100.00;99992.16;5091984;28;20028;-69
2022/12/21 07:51:43;;;;;;;3.15;1.10;;;;;;;10.42;100.00;99995.97;5092894;28;20435;-68
2022/12/21 07:54:08;;;;;;;2.58;1.55;;;;;;;10.38;100.00;99996.53;5092078;28;20047;-68
2022/12/21 07:56:34;;;;;;;1.48;1.02;;;;;;;10.38;100.00;99988.56;5093012;28;20032;-69
2022/12/21 07:59:00;;;;;;;4.65;1.15;;;;;;;10.41;100.00;99986.34;5093218;28;20411;-69
2022/12/21 08:01:26;;;;;;;2.05;1.10;;;;;;;10.38;100.00;100000.03;5092711;28;20032;-69
2022/12/21 08:03:53;;;;;;;1.35;1.05;;;;;;;10.38;100.00;99994.69;5093005;28;20031;-68
2022/12/21 08:06:19;;;;;;;2.05;1.52;;;;;;;10.39;100.00;100001.69;5093236;28;20495;-69
2022/12/21 08:08:44;;;;;;;1.20;1.08;;;;;;;10.37;100.00;100001.03;5093327;28;20122;-68
2022/12/21 08:11:16;;;;;;;5.18;1.50;;;;;;;10.40;100.00;100008.66;5092513;28;20035;-70
2022/12/21 08:13:43;;;;;;;5.03;1.48;;;;;;;10.40;100.00;99997.19;5092898;28;20047;-66
2022/12/21 08:16:10;;;;;;;3.28;1.25;;;;;;;10.40;100.00;100006.00;5092793;28;20039;-66
2022/12/21 08:18:37;;;;;;;4.15;1.50;;;;;;;10.43;100.00;100002.13;5092932;28;20032;-66
2022/12/21 08:21:03;;;;;;;1.58;1.00;;;;;;;10.36;100.00;99999.34;5092497;28;20397;-68
2022/12/21 08:23:28;;;;;;;2.65;1.45;;;;;;;10.42;100.00;100003.16;5091930;28;20036;-67
2022/12/21 08:25:53;;;;;;;2.75;1.48;;;;;;;10.44;100.00;99993.16;5092683;28;20378;-71
2022/12/21 08:28:19;;;;;;;1.52;1.10;;;;;;;10.46;100.00;99991.13;5092448;28;20044;-71
2022/12/21 08:30:45;;;;;;;2.30;1.02;;;;;;;10.45;100.00;99995.63;5092195;28;20046;-71
2022/12/21 08:33:10;;;;;;;1.80;1.20;;;;;;;10.45;100.00;99992.97;5092443;28;20122;-70
2022/12/21 08:35:36;;;;;;;4.13;1.75;;;;;;;10.41;100.00;99997.00;5092414;28;20040;-72
2022/12/21 08:38:02;;;;;;;1.35;1.10;;;;;;;10.45;100.00;99987.66;5092409;28;20036;-72
2022/12/21 08:40:28;;;;;;;2.70;1.27;;;;;;;10.49;100.00;99998.75;5091995;28;20115;-72
2022/12/21 08:42:53;;;;;;;3.38;1.05;;;;;;;10.41;100.00;99988.19;5092367;28;20035;-72
2022/12/21 08:45:19;;;;;;;2.05;1.40;;;;;;;10.52;100.00;99998.41;5092428;28;20489;-70
2022/12/21 08:47:44;;;;;;;3.30;1.27;;;;;;;10.52;100.00;99993.09;5092228;28;20032;-72
2022/12/21 08:50:09;;;;;;;2.20;2.00;;;;;;;10.46;100.00;99993.81;5091990;28;20431;-71
2022/12/21 08:52:35;;;;;;;4.38;2.63;;;;;;;10.51;100.00;100002.91;5092163;28;20044;-71
2022/12/21 08:55:00;;;;;;;1.65;1.45;;;;;;;10.57;100.00;99999.53;5092043;28;20032;-71
2022/12/21 08:57:26;;;;;;;2.85;1.58;;;;;;;10.60;100.00;100012.50;5092140;28;20047;-71
2022/12/21 08:59:51;;;;;;;1.80;1.27;;;;;;;10.65;100.00;100013.81;5092014;28;20069;-71
2022/12/21 09:02:17;;;;;;;2.25;1.02;;;;;;;10.68;100.00;100026.75;5091619;28;20404;-71
2022/12/21 09:04:42;;;;;;;5.97;1.30;;;;;;;10.70;100.00;100028.25;5092090;28;20521;-71
2022/12/21 09:07:08;;;;;;;3.00;1.42;;;;;;;10.70;100.00;100019.41;5091787;28;20032;-71
2022/12/21 09:09:33;;;;;;;1.70;1.17;;;;;;;10.72;100.00;100025.38;5091815;28;20047;-70
2022/12/21 09:11:59;;;;;;;2.15;1.27;;;;;;;10.72;100.00;100025.38;5091410;28;20040;-71
2022/12/21 09:14:25;;;;;;;3.75;1.40;;;;;;;10.73;100.00;100029.72;5090641;28;20047;-71
2022/12/21 09:16:51;;;;;;;1.75;1.20;;;;;;;10.76;100.00;100032.03;5090451;28;20404;-71
2022/12/21 09:19:16;;;;;;;3.92;1.10;;;;;;;10.77;100.00;100023.03;5091786;28;20117;-71
2022/12/21 09:21:42;;;;;;;1.27;0.95;;;;;;;10.83;100.00;100030.31;5091447;28;20435;-71
2022/12/21 09:24:08;;;;;;;1.60;1.27;;;;;;;10.79;100.00;100032.47;5091702;28;20038;-71
2022/12/21 09:26:33;;;;;;;1.30;1.00;;;;;;;10.89;100.00;100040.25;5091666;28;20067;-71
2022/12/21 09:28:58;;;;;;;4.18;1.13;;;;;;;10.85;100.00;100036.25;5091809;28;20492;-71
2022/12/21 09:31:24;;;;;;;1.25;1.10;;;;;;;10.89;100.00;100040.25;5091409;28;20040;-72
2022/12/21 09:33:50;;;;;;;1.60;0.90;;;;;;;10.93;100.00;100046.03;5091690;28;20399;-70
2022/12/21 09:36:16;;;;;;;1.27;1.13;;;;;;;10.97;100.00;100048.16;5091767;28;20063;-71
2022/12/21 09:38:42;;;;;;;0.90;0.85;;;;;;;11.00;100.00;100050.44;5091697;28;20082;-71
2022/12/21 09:41:26;;;;;;;2.40;1.02;;;;;;;11.06;100.00;100054.22;5091272;28;20078;-70
2022/12/21 09:44:11;;;;;;;1.23;0.88;;;;;;;11.01;100.00;100049.44;5091678;28;20040;-71
2022/12/21 09:46:40;;;;;;;1.60;1.20;;;;;;;11.09;100.00;100045.88;5091527;28;20504;-70
2022/12/21 09:49:13;;;;;;;2.53;1.38;;;;;;;11.10;100.00;100047.53;5091528;28;20044;-70
2022/12/21 09:51:45;;;;;;;4.07;1.20;;;;;;;11.08;100.00;100044.19;5091127;28;20032;-71
2022/12/21 09:54:19;;;;;;;2.85;1.02;;;;;;;11.16;100.00;100052.16;5091603;28;20032;-72
2022/12/21 09:56:49;;;;;;;4.30;1.35;;;;;;;11.18;100.00;100052.78;5091521;28;20043;-71
2022/12/21 09:59:20;;;;;;;2.05;1.20;;;;;;;11.16;100.00;100043.31;5091732;28;20051;-71
2022/12/21 10:02:00;;;;;;;1.45;1.20;;;;;;;11.18;100.00;100051.97;5091492;28;20493;-71
2022/12/21 10:04:41;;;;;;;2.03;1.20;;;;;;;11.23;100.00;100044.25;5091472;28;20427;-70
2022/12/21 10:07:44;;;;;;;1.75;1.10;;;;;;;11.23;100.00;100047.75;5091286;28;20504;-70
2022/12/21 10:10:30;;;;;;;3.25;1.20;;;;;;;11.29;100.00;100054.19;5094945;28;20032;-70
2022/12/21 10:13:30;;;;;;;2.20;1.35;;;;;;;11.29;100.00;100055.00;5095213;28;20169;-70
2022/12/21 10:16:33;;;;;;;2.00;1.10;;;;;;;11.34;100.00;100047.25;5095050;28;20036;-69
2022/12/21 10:19:09;;;;;;;1.10;1.05;;;;;;;11.35;100.00;100048.94;5094988;28;20039;-69
2022/12/21 10:21:46;;;;;;;1.85;1.02;;;;;;;11.41;100.00;100050.88;5094398;28;20028;-69
2022/12/21 10:24:27;;;;;;;1.52;1.20;;;;;;;11.45;100.00;100043.34;5093724;28;20127;-69
2022/12/21 10:27:00;;;;;;;1.13;0.90;;;;;;;11.50;100.00;100035.59;5095065;28;20107;-69
2022/12/21 10:29:34;;;;;;;1.88;0.90;;;;;;;11.50;100.00;100035.59;5095269;28;20047;-69
2022/12/21 10:32:00;;;;;;;2.00;1.10;;;;;;;11.50;100.00;100045.47;5094304;28;20392;-70
2022/12/21 10:34:35;;;;;;;1.10;0.90;;;;;;;11.53;100.00;100043.22;5094676;28;20093;-70
2022/12/21 10:37:14;;;;;;;1.10;0.88;;;;;;;11.56;100.00;100044.72;5094530;28;20055;-70
2022/12/21 10:39:40;;;;;;;2.33;1.10;;;;;;;11.51;100.00;100034.59;5094644;28;20039;-70
2022/12/21 10:42:37;;;;;;;1.35;1.10;;;;;;;11.54;100.00;100041.38;5094245;28;20020;-69
2022/12/21 10:45:03;;;;;;;2.90;1.40;;;;;;;11.52;100.00;100043.41;5092180;28;20052;-70
2022/12/21 10:47:29;;;;;;;2.03;1.10;;;;;;;11.58;100.00;100043.50;5094380;28;20036;-70
2022/12/21 10:50:04;;;;;;;1.20;0.93;;;;;;;11.59;100.00;100047.81;5094253;28;20124;-70
2022/12/21 10:52:36;;;;;;;0.80;0.80;;;;;;;11.61;100.00;100048.50;5094013;28;20032;-70
2022/12/21 10:55:04;;;;;;;1.30;1.10;;;;;;;11.65;100.00;100049.75;5094223;28;20032;-69
2022/12/21 10:57:33;;;;;;;1.63;1.20;;;;;;;11.66;100.00;100050.59;5094151;28;20036;-70
2022/12/21 11:00:26;;;;;;;1.30;1.00;;;;;;;11.65;100.00;100043.59;5094220;28;20043;-70
2022/12/21 11:02:56;;;;;;;1.35;0.98;;;;;;;11.66;100.00;100050.59;5091285;28;20084;-70
2022/12/21 11:05:36;;;;;;;0.98;0.95;;;;;;;11.65;100.00;100046.28;5093939;28;20036;-70
2022/12/21 11:08:13;;;;;;;3.25;1.30;;;;;;;11.66;100.00;100051.41;5094296;28;20043;-70
2022/12/21 11:10:41;;;;;;;3.28;1.52;;;;;;;11.69;100.00;100051.06;5093751;28;20052;-70
2022/12/21 11:13:07;;;;;;;2.97;0.80;;;;;;;11.62;100.00;100052.81;5094007;28;20115;-70
2022/12/21 11:15:33;;;;;;;1.48;1.38;;;;;;;11.65;100.00;100051.59;5093955;28;20040;-71
2022/12/21 11:17:59;;;;;;;1.33;1.00;;;;;;;11.65;100.00;100041.75;5092629;28;20040;-71
2022/12/21 11:20:26;;;;;;;1.73;1.02;;;;;;;11.72;100.00;100046.34;5093547;28;20389;-72
2022/12/21 11:22:55;;;;;;;1.17;0.90;;;;;;;11.76;100.00;100035.13;5093973;28;20040;-70
2022/12/21 11:25:24;;;;;;;1.10;0.90;;;;;;;11.78;100.00;100037.59;5093600;28;20101;-70
2022/12/21 11:27:56;;;;;;;1.08;0.98;;;;;;;11.84;100.00;100032.38;5093695;28;20108;-70
2022/12/21 11:30:24;;;;;;;1.02;0.90;;;;;;;11.91;100.00;100037.81;5090084;22;20033;-63
2022/12/21 11:32:53;;;;;;;3.00;1.02;;;;;;;11.94;100.00;100038.28;5053188;28;20379;-63
2022/12/21 11:35:20;;;;;;;0.93;0.80;;;;;;;11.99;100.00;100034.19;5053056;28;20120;-62
2022/12/21 11:37:51;;;;;;;1.08;0.70;;;;;;;11.99;100.00;100031.53;5053232;28;20060;-64
2022/12/21 11:40:20;;;;;;;1.00;0.90;;;;;;;12.00;100.00;100034.03;5052620;28;20061;-65
2022/12/21 11:42:58;;;;;;;1.38;1.05;;;;;;;12.07;100.00;100021.59;5052971;28;20045;-63
2022/12/21 11:45:32;;;;;;;1.08;0.98;;;;;;;12.13;100.00;100014.66;5051700;28;20361;-63
2022/12/21 11:48:28;;;;;;;0.70;0.70;;;;;;;12.21;100.00;100015.38;5052922;28;20063;-62
2022/12/21 11:50:58;;;;;;;1.45;1.15;;;;;;;12.23;100.00;100010.66;5051185;28;20083;-63
2022/12/21 11:53:48;;;;;;;1.52;1.10;;;;;;;12.27;100.00;100018.31;5051455;28;20040;-62
2022/12/21 11:56:22;;;;;;;1.45;1.10;;;;;;;12.31;100.00;100011.53;5052764;28;20448;-63
2022/12/21 11:59:20;;;;;;;1.60;0.88;;;;;;;12.22;100.00;100003.66;5052568;28;20127;-63
2022/12/21 12:02:11;;;;;;;3.58;0.80;;;;;;;12.22;100.00;100003.66;5052228;28;20048;-64
2022/12/21 12:04:46;;;;;;;1.05;0.88;;;;;;;12.19;100.00;100005.88;5051416;28;20037;-63
2022/12/21 12:07:36;;;;;;;1.45;1.30;;;;;;;12.18;100.00;100006.91;5052495;28;20048;-63
2022/12/21 12:10:05;;;;;;;1.95;1.30;;;;;;;12.14;100.00;99994.97;5052306;28;20028;-65
2022/12/21 12:12:37;;;;;;;1.88;1.20;;;;;;;12.11;100.00;99995.31;5052241;28;20128;-65
2022/12/21 12:15:23;;;;;;;3.00;1.60;;;;;;;12.08;100.00;100006.38;5052496;28;20036;-65
2022/12/21 12:17:57;;;;;;;1.40;0.97;;;;;;;12.16;100.00;99992.91;5052420;28;20394;-65
2022/12/21 12:20:44;;;;;;;1.05;0.95;;;;;;;12.33;100.00;99989.00;5051876;28;20060;-63
2022/12/21 12:23:37;;;;;;;2.78;1.02;;;;;;;12.42;100.00;99993.19;5052327;28;20039;-63
2022/12/21 12:26:15;;;;;;;0.82;0.73;;;;;;;12.51;100.00;99993.88;5052261;28;20040;-64
2022/12/21 12:28:47;;;;;;;1.20;0.82;;;;;;;12.61;100.00;99989.03;5052146;28;20060;-62
2022/12/21 12:31:48;;;;;;;1.42;1.15;;;;;;;12.65;100.00;99992.13;5051142;28;20435;-62
2022/12/21 12:34:24;;;;;;;2.30;1.63;;;;;;;12.60;100.00;99976.69;5029807;28;20061;-65
2022/12/21 12:37:02;;;;;;;1.90;1.23;;;;;;;12.57;100.00;99985.09;5050801;28;20555;-63
2022/12/21 12:39:53;;;;;;;;;;;;;;;12.49;100.00;99982.56;5052332;28;20547;-65
2022/12/21 12:42:31;;;;;;;2.40;1.30;;;;;;;12.43;100.00;99972.63;5051659;28;19916;-63
2022/12/21 12:45:02;;;;;;;2.35;1.50;;;;;;;12.43;100.00;99981.47;5051979;28;20059;-65
2022/12/21 12:47:41;;;;;;;2.58;1.52;;;;;;;12.45;100.00;99983.94;5051814;28;20041;-65
2022/12/21 12:50:31;;;;;;;3.90;1.33;;;;;;;12.46;100.00;99977.59;5051788;28;20037;-65
2022/12/21 12:53:05;;;;;;;2.33;1.23;;;;;;;12.51;100.00;99985.84;5051607;28;20524;-64
2022/12/21 12:55:35;;;;;;;1.63;1.23;;;;;;;12.48;100.00;99979.06;5051620;28;20072;-64
2022/12/21 12:58:13;;;;;;;2.35;1.25;;;;;;;12.52;100.00;99962.63;5051638;28;20040;-64
2022/12/21 13:00:57;;;;;;;1.73;1.30;;;;;;;12.56;100.00;99956.72;5051428;28;20040;-64
2022/12/21 13:03:26;;;;;;;1.50;0.95;;;;;;;12.61;100.00;99953.47;5051559;28;20375;-65
2022/12/21 13:06:20;;;;;;;4.80;1.45;;;;;;;12.67;100.00;99956.19;5051449;28;20036;-65
2022/12/21 13:08:56;;;;;;;1.50;1.13;;;;;;;12.74;100.00;99954.41;5051658;28;20120;-65
2022/12/21 13:11:42;;;;;;;1.83;1.17;;;;;;;12.82;100.00;99948.06;5051166;28;20033;-65
2022/12/21 13:14:26;;;;;;;4.75;1.10;;;;;;;12.88;100.00;99952.66;5051588;28;20051;-65
2022/12/21 13:16:57;;;;;;;1.10;1.00;;;;;;;12.92;100.00;99947.75;5051458;28;20390;-65
2022/12/21 13:19:26;;;;;;;2.83;1.67;;;;;;;12.88;100.00;99939.28;5051377;28;20083;-65
2022/12/21 13:21:56;;;;;;;1.70;1.38;;;;;;;12.86;100.00;99937.84;5051176;28;20086;-65
2022/12/21 13:24:31;;;;;;;1.45;0.88;;;;;;;12.90;100.00;99942.56;5051446;28;20098;-64
2022/12/21 13:27:00;;;;;;;5.72;1.38;;;;;;;12.95;100.00;99950.00;5051484;28;20453;-65
2022/12/21 13:30:00;;;;;;;1.75;1.08;;;;;;;12.88;100.00;99939.28;5051278;28;20403;-65
2022/12/21 13:32:37;;;;;;;5.10;1.17;;;;;;;12.88;100.00;99941.94;5035078;28;20131;-66
2022/12/21 13:35:06;;;;;;;1.95;1.30;;;;;;;12.85;100.00;99944.22;5051482;28;20037;-64
2022/12/21 13:37:35;;;;;;;2.55;1.30;;;;;;;12.82;100.00;99933.88;5051414;28;20559;-65
2022/12/21 13:40:21;;;;;;;1.42;1.23;;;;;;;12.80;100.00;99941.28;5045243;28;20097;-66
2022/12/21 13:42:58;;;;;;;2.90;1.23;;;;;;;12.81;100.00;99934.91;5052550;28;20033;-65
2022/12/21 13:45:51;;;;;;;1.45;0.93;;;;;;;12.76;100.00;99944.34;5055608;28;20036;-65
2022/12/21 13:48:21;;;;;;;1.27;1.00;;;;;;;12.74;100.00;99940.22;5055342;28;20033;-63
2022/12/21 13:51:14;;;;;;;3.70;1.30;;;;;;;12.71;100.00;99952.13;5054837;28;20048;-65
2022/12/21 13:53:51;;;;;;;1.00;0.95;;;;;;;12.67;100.00;99952.69;5046614;28;20042;-64
2022/12/21 13:56:47;;;;;;;1.30;1.10;;;;;;;12.60;100.00;99949.97;5045242;28;20109;-65
2022/12/21 13:59:30;;;;;;;1.30;0.98;;;;;;;12.60;100.00;99944.63;5044771;28;20033;-64
2022/12/21 14:01:58;;;;;;;1.60;0.93;;;;;;;12.60;100.00;99946.47;5044743;28;20363;-64
2022/12/21 14:04:44;;;;;;;0.95;0.82;;;;;;;12.58;100.00;99945.81;5043677;28;20501;-64
2022/12/21 14:07:26;;;;;;;2.28;0.85;;;;;;;12.58;100.00;99953.84;5028109;28;20044;-65
2022/12/21 14:10:21;;;;;;;2.05;1.10;;;;;;;12.54;100.00;99956.09;5037589;28;20502;-64
2022/12/21 14:13:34;;;;;;;2.50;1.20;;;;;;;12.48;100.00;99955.00;5026749;28;20060;-65
2022/12/21 14:16:24;;;;;;;1.45;1.00;;;;;;;12.45;100.00;99960.75;4988746;28;20053;-64
2022/12/21 14:18:56;;;;;;;1.50;1.08;;;;;;;12.43;100.00;99959.28;5027020;28;20502;-64
2022/12/21 14:21:28;;;;;;;2.38;1.23;;;;;;;12.41;100.00;99977.34;5034331;28;20045;-64
2022/12/21 14:24:03;;;;;;;0.77;0.77;;;;;;;12.36;100.00;99972.56;5034636;28;20034;-64
2022/12/21 14:26:46;;;;;;;2.13;1.25;;;;;;;12.29;100.00;99974.34;5034516;28;20056;-65
2022/12/21 14:29:16;;;;;;;1.55;0.90;;;;;;;12.23;100.00;99983.94;5034704;28;20437;-65
2022/12/21 14:31:50;;;;;;;2.33;1.15;;;;;;;12.12;100.00;99981.78;5033946;28;20040;-64
2022/12/21 14:34:18;;;;;;;2.83;0.98;;;;;;;11.93;100.00;99977.91;5034349;28;20049;-64
2022/12/21 14:37:11;;;;;;;2.10;1.23;;;;;;;11.87;100.00;99978.66;5034398;28;20025;-64
2022/12/21 14:39:44;;;;;;;2.63;1.38;;;;;;;11.80;100.00;99976.88;5034157;28;20513;-64
2022/12/21 14:42:41;;;;;;;1.40;1.00;;;;;;;11.67;100.00;99973.06;5034016;28;20037;-63
2022/12/21 14:45:09;;;;;;;4.28;1.45;;;;;;;11.63;100.00;99977.09;5013597;28;20052;-62
2022/12/21 14:47:36;;;;;;;3.15;1.52;;;;;;;11.58;100.00;99986.66;5034207;28;20035;-64
2022/12/21 14:50:21;;;;;;;2.08;1.10;;;;;;;11.61;100.00;99994.31;5032919;28;20041;-64
2022/12/21 14:53:02;;;;;;;1.55;1.20;;;;;;;11.58;100.00;99994.66;5023149;28;20041;-64
2022/12/21 14:55:33;;;;;;;2.90;1.35;;;;;;;11.54;100.00;99999.56;5034183;28;20068;-64
2022/12/21 14:57:59;;;;;;;3.25;1.85;;;;;;;11.47;100.00;99998.63;5032883;28;20048;-61
2022/12/21 15:00:28;;;;;;;2.65;1.55;;;;;;;11.44;100.00;100009.69;5033642;28;20045;-65
2022/12/21 15:03:43;;;;;;;3.08;1.50;;;;;;;11.39;100.00;100012.06;5032819;28;20116;-63
2022/12/21 15:06:11;;;;;;;1.92;1.55;;;;;;;11.27;100.00;99992.19;4972812;28;20066;-64
2022/12/21 15:08:40;;;;;;;3.05;1.60;;;;;;;11.23;100.00;99996.25;4972774;28;20535;-64
2022/12/21 15:11:14;;;;;;;2.00;1.80;;;;;;;11.22;100.00;99995.44;5007123;28;20129;-64
2022/12/21 15:13:47;;;;;;;2.88;1.92;;;;;;;11.19;100.00;99985.13;5033800;28;20053;-65
2022/12/21 15:16:12;;;;;;;6.20;2.05;;;;;;;11.14;100.00;99991.00;5033833;28;20041;-64
2022/12/21 15:18:41;;;;;;;1.20;1.10;;;;;;;11.12;100.00;99989.53;5033802;28;20044;-65
2022/12/21 15:21:27;;;;;;;2.67;1.58;;;;;;;11.15;100.00;99989.19;5033508;28;20048;-64
2022/12/21 15:23:59;;;;;;;1.15;0.93;;;;;;;11.12;100.00;99987.69;5033668;28;20120;-64
2022/12/21 15:26:35;;;;;;;2.25;1.50;;;;;;;11.08;100.00;99989.09;5033685;28;20041;-64
2022/12/21 15:29:05;;;;;;;3.17;1.30;;;;;;;11.08;100.00;99977.56;5033380;28;20037;-64
2022/12/21 15:31:31;;;;;;;3.03;1.57;;;;;;;11.06;100.00;99979.59;5032819;28;20029;-64
2022/12/21 15:34:04;;;;;;;2.15;1.52;;;;;;;11.02;100.00;99975.63;5033424;28;20287;-64
2022/12/21 15:36:33;;;;;;;2.00;1.23;;;;;;;11.02;100.00;99967.63;5033329;28;20559;-64
2022/12/21 15:39:03;;;;;;;2.30;1.60;;;;;;;11.00;100.00;99969.66;5033324;28;20033;-64
2022/12/21 15:41:43;;;;;;;6.50;2.00;;;;;;;11.00;100.00;99965.16;5031413;28;20601;-64
2022/12/21 15:44:27;;;;;;;1.55;1.30;;;;;;;10.99;100.00;99979.50;5033307;28;20120;-64
2022/12/21 15:47:09;;;;;;;1.95;1.30;;;;;;;10.94;100.00;99973.88;5032997;28;20095;-64
2022/12/21 15:49:53;;;;;;;3.50;1.30;;;;;;;10.88;100.00;99975.44;5032851;28;20500;-64
2022/12/21 15:52:41;;;;;;;4.97;1.30;;;;;;;10.86;100.00;99974.78;5032557;28;20036;-64
2022/12/21 15:55:15;;;;;;;2.05;1.55;;;;;;;10.84;100.00;99973.34;5032894;28;20064;-64
2022/12/21 15:57:48;;;;;;;1.52;1.10;;;;;;;10.83;100.00;99977.00;5032727;28;20069;-65
2022/12/21 16:00:16;;;;;;;3.80;1.63;;;;;;;10.82;100.00;99978.00;5032199;28;20388;-65
2022/12/21 16:02:45;;;;;;;2.70;1.65;;;;;;;10.80;100.00;99966.69;5032646;28;20048;-64
2022/12/21 16:05:14;;;;;;;4.57;1.40;;;;;;;10.79;100.00;99973.03;5031998;28;20087;-64
2022/12/21 16:07:45;;;;;;;3.75;1.60;;;;;;;10.76;100.00;99973.41;5031368;28;20107;-64
2022/12/21 16:10:21;;;;;;;2.65;1.98;;;;;;;10.73;100.00;99968.44;5030978;28;20048;-64
2022/12/21 16:12:54;;;;;;;3.15;1.73;;;;;;;10.73;100.00;99979.09;5032349;28;20033;-64
2022/12/21 16:15:24;;;;;;;3.30;2.15;;;;;;;10.71;100.00;99976.63;5031213;28;20037;-65
2022/12/21 16:18:02;;;;;;;4.78;2.30;;;;;;;10.71;100.00;99971.28;5032261;28;20475;-68
2022/12/21 16:20:31;;;;;;;4.60;2.35;;;;;;;10.70;100.00;99968.81;5032058;28;20422;-68
2022/12/21 16:22:57;;;;;;;3.42;2.20;;;;;;;10.65;100.00;99965.84;5032208;28;20541;-68
2022/12/21 16:25:26;;;;;;;3.80;2.30;;;;;;;10.66;100.00;99965.66;5032149;28;20033;-67
2022/12/21 16:27:53;;;;;;;4.55;2.20;;;;;;;10.63;100.00;99965.19;5032119;28;20494;-69
2022/12/21 16:30:19;;;;;;;3.25;2.10;;;;;;;10.63;100.00;99973.16;5031747;28;20033;-68
2022/12/21 16:32:45;;;;;;;3.20;2.20;;;;;;;10.57;100.00;99969.41;5031945;28;20087;-68
2022/12/21 16:35:28;;;;;;;3.90;2.65;;;;;;;10.55;100.00;99974.91;5032368;28;20413;-68
2022/12/21 16:37:55;;;;;;;4.43;2.80;;;;;;;10.51;100.00;99975.47;5032108;28;20359;-69
2022/12/21 16:40:24;;;;;;;5.70;3.47;;;;;;;10.48;100.00;99987.28;5031647;28;20380;-68
2022/12/21 16:43:00;;;;;;;7.20;3.97;;;;;;;10.45;100.00;99985.00;5031960;28;20033;-68
2022/12/21 16:45:26;;;;;;;38.17;15.40;;;;;;;10.44;100.00;99986.00;5032016;28;20041;-68
2022/12/21 16:48:16;;;;;;;9.32;4.60;;;;;;;10.44;100.00;99985.19;5031892;28;20037;-68
2022/12/21 16:50:44;;;;;;;10.30;5.47;;;;;;;10.44;100.00;99980.69;5031423;28;20079;-68
2022/12/21 16:53:35;;;;;;;17.27;6.25;;;;;;;10.43;100.00;99983.50;5031827;28;20038;-69
2022/12/21 16:56:20;;;;;;;10.70;5.20;;;;;;;10.44;100.00;99982.50;5031824;28;20045;-68
2022/12/21 16:59:01;;;;;;;11.77;5.80;;;;;;;10.41;100.00;99974.88;5031822;28;20153;-68
2022/12/21 17:01:39;;;;;;;9.88;5.05;;;;;;;10.43;100.00;99978.16;5031481;28;20573;-68
2022/12/21 17:04:15;;;;;;;12.50;5.45;;;;;;;10.43;100.00;99981.69;5031908;28;20112;-69
2022/12/21 17:06:44;;;;;;;9.82;6.25;;;;;;;10.42;100.00;99966.69;5031816;28;20036;-68
2022/12/21 17:09:19;;;;;;;9.23;5.15;;;;;;;10.43;100.00;99963.06;5030535;28;20132;-68
2022/12/21 17:11:47;;;;;;;8.75;4.82;;;;;;;10.42;100.00;99972.00;5031353;28;20123;-68